Weather at Utirik Airport

Public forecast

Using degrees Celsius for public forecast. Weather courtesy of forecast.io.

Closest aviation weather report (METAR) to Utirik Airport

Closest report is Bucholz Army Air Field, 195.6 nm (362.3 km) SW.

2024/05/29 17:40 (retrieved 12 minutes ago)

PKWA 291740Z AUTO 07011KT 10SM SCT016 28/25 A2983 RMK AO2 T02780249

Closest aviation forecast (TAF) to Utirik Airport

Closest forecast is Bucholz Army Air Field, 195.6 nm (362.3 km) SW.

2024/05/29 12:24 (retrieved 5 hours ago)

TAF PKWA 291120Z 2912/3012 09010KT P6SM VCSH FEW015 SCT030 BKN130